Anfa — CNA2495 — position and weather

sailwx.info

Track history (hours):
 
Tides and Currents Weather Stations Pressure Air Temp Water Temp Dewpoint Dewpoint Depression Visibility Wind Speed Wind Dir Waves Ship Positions

Anfa

Last reported at 2017-Oct-29 12:40 UTC. Time now 2017-Nov-22 15:03 UTC.
Position N 33°08' W 008°38'.
Warning: this ship's position is 24 days out of date.

Length 105 m; draft 3.7 m.

Type: Ship (hazmat cat A). MMSI: 242576000.

Date/timePositionNaut miles runAvg speedWind from/ knotsBaromVisibWave heightAir tempDewpointWater temp
2017-Oct-29 12:40N 33°08' W 008°38'0 2.6
2017-Oct-29 12:28N 33°08' W 008°38'3 4.8
2017-Oct-29 11:56N 33°08' W 008°42'1 2.2
2017-Oct-29 11:18N 33°08' W 008°43'0 0.0
2017-Oct-28 15:53N 33°08' W 008°43'0 0.0
2017-Oct-28 15:26N 33°08' W 008°43'0 0.0
2017-Oct-28 13:23N 33°08' W 008°43'0 0.0
2017-Oct-28 05:32N 33°08' W 008°43'0 0.0
2017-Oct-28 03:47N 33°08' W 008°43'0 0.0
2017-Oct-27 17:52N 33°08' W 008°43'1910.7
2017-Oct-27 16:07N 33°24' W 008°31'213.7
2017-Oct-27 16:00N 33°25' W 008°29'3513.2
2017-Oct-27 13:22N 33°44' W 007°54'412.6
2017-Oct-27 13:00N 33°43' W 007°49'1011.7
2017-Oct-27 12:11N 33°40' W 007°38'1 0.0
2017-Oct-27 00:05N 33°40' W 007°37'0 0.0
2017-Oct-26 23:56N 33°40' W 007°37'1 0.0
2017-Oct-24 20:47N 33°41' W 007°36'0 0.0
2017-Oct-24 20:28N 33°41' W 007°36'1 1.7
2017-Oct-24 20:00N 33°41' W 007°35'4 4.0
2017-Oct-24 19:00N 33°40' W 007°40'4 7.4
2017-Oct-24 18:30N 33°43' W 007°39'  
Track history (hours):
 
Tides and Currents Weather Stations Pressure Air Temp Water Temp Dewpoint Dewpoint Depression Visibility Wind Speed Wind Dir Waves Ship Positions

Anfa

Last reported at 2017-Oct-29 12:40 UTC. Time now 2017-Nov-22 15:03 UTC.
Position N 33°08' W 008°38'.
Warning: this ship's position is 24 days out of date.

Length 105 m; draft 3.7 m.

Type: Ship (hazmat cat A). MMSI: 242576000.

Date/timePositionNaut miles runAvg speedWind from/ knotsBaromVisibWave heightAir tempDewpointWater temp
2017-Oct-29 12:40N 33°08' W 008°38'0 2.6
2017-Oct-29 12:28N 33°08' W 008°38'3 4.8
2017-Oct-29 11:56N 33°08' W 008°42'1 2.2
2017-Oct-29 11:18N 33°08' W 008°43'0 0.0
2017-Oct-28 15:53N 33°08' W 008°43'0 0.0
2017-Oct-28 15:26N 33°08' W 008°43'0 0.0
2017-Oct-28 13:23N 33°08' W 008°43'0 0.0
2017-Oct-28 05:32N 33°08' W 008°43'0 0.0
2017-Oct-28 03:47N 33°08' W 008°43'0 0.0
2017-Oct-27 17:52N 33°08' W 008°43'1910.7
2017-Oct-27 16:07N 33°24' W 008°31'213.7
2017-Oct-27 16:00N 33°25' W 008°29'3513.2
2017-Oct-27 13:22N 33°44' W 007°54'412.6
2017-Oct-27 13:00N 33°43' W 007°49'1011.7
2017-Oct-27 12:11N 33°40' W 007°38'1 0.0
2017-Oct-27 00:05N 33°40' W 007°37'0 0.0
2017-Oct-26 23:56N 33°40' W 007°37'1 0.0
2017-Oct-24 20:47N 33°41' W 007°36'0 0.0
2017-Oct-24 20:28N 33°41' W 007°36'1 1.7
2017-Oct-24 20:00N 33°41' W 007°35'4 4.0
2017-Oct-24 19:00N 33°40' W 007°40'4 7.4
2017-Oct-24 18:30N 33°43' W 007°39'  

Dump ship's entire track history